sensor_id;sensor_type;location;lat;lon;timestamp;P1;durP1;ratioP1;P2;durP2;ratioP2
20449;SDS011;10384;51.940;8.432;2022-07-21T00:01:21;7.50;;;3.57;;
20449;SDS011;10384;51.940;8.432;2022-07-21T00:03:47;7.60;;;3.53;;
20449;SDS011;10384;51.940;8.432;2022-07-21T00:06:13;8.40;;;4.30;;
20449;SDS011;10384;51.940;8.432;2022-07-21T00:08:39;11.63;;;6.17;;
20449;SDS011;10384;51.940;8.432;2022-07-21T00:11:05;15.83;;;10.33;;
20449;SDS011;10384;51.940;8.432;2022-07-21T00:13:31;21.17;;;12.43;;
20449;SDS011;10384;51.940;8.432;2022-07-21T00:15:56;18.23;;;10.90;;
20449;SDS011;10384;51.940;8.432;2022-07-21T00:18:24;12.37;;;6.67;;
20449;SDS011;10384;51.940;8.432;2022-07-21T00:20:53;9.70;;;6.53;;
20449;SDS011;10384;51.940;8.432;2022-07-21T00:23:19;12.10;;;6.70;;
20449;SDS011;10384;51.940;8.432;2022-07-21T00:25:45;9.93;;;4.90;;
20449;SDS011;10384;51.940;8.432;2022-07-21T00:28:11;11.03;;;5.10;;
20449;SDS011;10384;51.940;8.432;2022-07-21T00:30:37;9.47;;;5.00;;
20449;SDS011;10384;51.940;8.432;2022-07-21T00:33:03;8.73;;;5.67;;
20449;SDS011;10384;51.940;8.432;2022-07-21T00:35:29;11.20;;;5.33;;
20449;SDS011;10384;51.940;8.432;2022-07-21T00:37:55;12.43;;;5.83;;
20449;SDS011;10384;51.940;8.432;2022-07-21T00:40:21;12.80;;;5.60;;
20449;SDS011;10384;51.940;8.432;2022-07-21T00:42:47;8.23;;;5.30;;
20449;SDS011;10384;51.940;8.432;2022-07-21T00:45:13;10.33;;;5.03;;
20449;SDS011;10384;51.940;8.432;2022-07-21T00:47:39;8.77;;;4.93;;
20449;SDS011;10384;51.940;8.432;2022-07-21T00:50:08;8.40;;;4.73;;
20449;SDS011;10384;51.940;8.432;2022-07-21T00:52:34;7.83;;;4.53;;
20449;SDS011;10384;51.940;8.432;2022-07-21T00:55:00;9.43;;;4.43;;
20449;SDS011;10384;51.940;8.432;2022-07-21T00:57:27;8.57;;;4.10;;
20449;SDS011;10384;51.940;8.432;2022-07-21T00:59:53;6.87;;;3.67;;
20449;SDS011;10384;51.940;8.432;2022-07-21T01:02:19;6.83;;;3.80;;
20449;SDS011;10384;51.940;8.432;2022-07-21T01:04:45;5.70;;;3.97;;
20449;SDS011;10384;51.940;8.432;2022-07-21T01:07:11;8.13;;;4.00;;
20449;SDS011;10384;51.940;8.432;2022-07-21T01:09:38;5.77;;;4.17;;
20449;SDS011;10384;51.940;8.432;2022-07-21T01:12:04;8.00;;;4.13;;
20449;SDS011;10384;51.940;8.432;2022-07-21T01:14:30;8.07;;;4.03;;
20449;SDS011;10384;51.940;8.432;2022-07-21T01:16:57;6.73;;;4.13;;
20449;SDS011;10384;51.940;8.432;2022-07-21T01:19:23;7.07;;;4.17;;
20449;SDS011;10384;51.940;8.432;2022-07-21T01:21:49;7.13;;;4.23;;
20449;SDS011;10384;51.940;8.432;2022-07-21T01:24:17;7.93;;;4.37;;
20449;SDS011;10384;51.940;8.432;2022-07-21T01:26:45;9.57;;;4.03;;
20449;SDS011;10384;51.940;8.432;2022-07-21T01:29:11;6.70;;;4.37;;
20449;SDS011;10384;51.940;8.432;2022-07-21T01:31:38;7.23;;;4.00;;
20449;SDS011;10384;51.940;8.432;2022-07-21T01:34:05;8.07;;;4.43;;
20449;SDS011;10384;51.940;8.432;2022-07-21T01:36:32;7.43;;;3.90;;
20449;SDS011;10384;51.940;8.432;2022-07-21T01:38:58;7.63;;;4.23;;
20449;SDS011;10384;51.940;8.432;2022-07-21T01:41:43;8.20;;;4.30;;
20449;SDS011;10384;51.940;8.432;2022-07-21T01:44:10;8.43;;;4.33;;
20449;SDS011;10384;51.940;8.432;2022-07-21T01:46:37;7.77;;;4.70;;
20449;SDS011;10384;51.940;8.432;2022-07-21T01:49:04;10.70;;;5.00;;
20449;SDS011;10384;51.940;8.432;2022-07-21T01:51:30;8.73;;;5.17;;
20449;SDS011;10384;51.940;8.432;2022-07-21T01:53:56;10.20;;;4.73;;
20449;SDS011;10384;51.940;8.432;2022-07-21T01:56:23;6.00;;;4.37;;
20449;SDS011;10384;51.940;8.432;2022-07-21T01:58:50;6.97;;;4.43;;
20449;SDS011;10384;51.940;8.432;2022-07-21T02:01:16;9.77;;;4.80;;
20449;SDS011;10384;51.940;8.432;2022-07-21T02:03:43;10.03;;;5.13;;
20449;SDS011;10384;51.940;8.432;2022-07-21T02:06:09;7.43;;;4.80;;
20449;SDS011;10384;51.940;8.432;2022-07-21T02:08:35;9.17;;;4.90;;
20449;SDS011;10384;51.940;8.432;2022-07-21T02:11:01;9.97;;;4.63;;
20449;SDS011;10384;51.940;8.432;2022-07-21T02:13:27;7.17;;;4.90;;
20449;SDS011;10384;51.940;8.432;2022-07-21T02:15:53;8.53;;;4.53;;
20449;SDS011;10384;51.940;8.432;2022-07-21T02:18:19;7.97;;;4.63;;
20449;SDS011;10384;51.940;8.432;2022-07-21T02:20:45;9.47;;;4.70;;
20449;SDS011;10384;51.940;8.432;2022-07-21T02:23:15;8.87;;;5.00;;
20449;SDS011;10384;51.940;8.432;2022-07-21T02:25:42;8.50;;;4.83;;
20449;SDS011;10384;51.940;8.432;2022-07-21T02:28:08;8.37;;;5.03;;
20449;SDS011;10384;51.940;8.432;2022-07-21T02:30:34;7.67;;;4.57;;
20449;SDS011;10384;51.940;8.432;2022-07-21T02:33:00;8.33;;;4.97;;
20449;SDS011;10384;51.940;8.432;2022-07-21T02:35:26;10.03;;;5.33;;
20449;SDS011;10384;51.940;8.432;2022-07-21T02:37:52;9.97;;;5.20;;
20449;SDS011;10384;51.940;8.432;2022-07-21T02:40:18;9.43;;;5.13;;
20449;SDS011;10384;51.940;8.432;2022-07-21T02:42:44;11.40;;;5.57;;
20449;SDS011;10384;51.940;8.432;2022-07-21T02:45:10;11.77;;;5.47;;
20449;SDS011;10384;51.940;8.432;2022-07-21T02:50:18;9.93;;;5.60;;
20449;SDS011;10384;51.940;8.432;2022-07-21T02:52:44;12.93;;;6.60;;
20449;SDS011;10384;51.940;8.432;2022-07-21T02:55:10;13.17;;;6.90;;
20449;SDS011;10384;51.940;8.432;2022-07-21T02:57:36;12.57;;;6.73;;
20449;SDS011;10384;51.940;8.432;2022-07-21T03:00:06;16.63;;;7.87;;
20449;SDS011;10384;51.940;8.432;2022-07-21T03:02:33;12.30;;;6.53;;
20449;SDS011;10384;51.940;8.432;2022-07-21T03:04:59;11.77;;;6.70;;
20449;SDS011;10384;51.940;8.432;2022-07-21T03:07:25;11.03;;;6.67;;
20449;SDS011;10384;51.940;8.432;2022-07-21T03:09:51;12.07;;;6.80;;
20449;SDS011;10384;51.940;8.432;2022-07-21T03:12:16;11.03;;;6.37;;
20449;SDS011;10384;51.940;8.432;2022-07-21T03:14:42;11.57;;;6.90;;
20449;SDS011;10384;51.940;8.432;2022-07-21T03:17:08;9.87;;;6.80;;
20449;SDS011;10384;51.940;8.432;2022-07-21T03:19:35;12.33;;;7.17;;
20449;SDS011;10384;51.940;8.432;2022-07-21T03:22:01;14.43;;;7.33;;
20449;SDS011;10384;51.940;8.432;2022-07-21T03:24:27;14.07;;;8.00;;
20449;SDS011;10384;51.940;8.432;2022-07-21T03:26:54;15.53;;;7.77;;
20449;SDS011;10384;51.940;8.432;2022-07-21T03:29:20;14.03;;;7.50;;
20449;SDS011;10384;51.940;8.432;2022-07-21T03:31:46;16.20;;;8.03;;
20449;SDS011;10384;51.940;8.432;2022-07-21T03:34:12;14.20;;;7.80;;
20449;SDS011;10384;51.940;8.432;2022-07-21T03:36:38;13.77;;;7.80;;
20449;SDS011;10384;51.940;8.432;2022-07-21T03:39:04;14.13;;;8.00;;
20449;SDS011;10384;51.940;8.432;2022-07-21T03:41:30;14.17;;;7.23;;
20449;SDS011;10384;51.940;8.432;2022-07-21T03:43:56;13.20;;;7.40;;
20449;SDS011;10384;51.940;8.432;2022-07-21T03:46:22;12.20;;;7.30;;
20449;SDS011;10384;51.940;8.432;2022-07-21T03:48:48;11.93;;;6.77;;
20449;SDS011;10384;51.940;8.432;2022-07-21T03:51:15;9.73;;;5.57;;
20449;SDS011;10384;51.940;8.432;2022-07-21T03:53:40;15.50;;;5.83;;
20449;SDS011;10384;51.940;8.432;2022-07-21T03:56:07;10.00;;;5.63;;
20449;SDS011;10384;51.940;8.432;2022-07-21T03:58:33;8.97;;;5.30;;
20449;SDS011;10384;51.940;8.432;2022-07-21T04:00:58;9.63;;;5.20;;
20449;SDS011;10384;51.940;8.432;2022-07-21T04:03:24;12.90;;;5.60;;
20449;SDS011;10384;51.940;8.432;2022-07-21T04:05:50;11.03;;;5.27;;
20449;SDS011;10384;51.940;8.432;2022-07-21T04:08:17;10.57;;;5.37;;
20449;SDS011;10384;51.940;8.432;2022-07-21T04:10:43;8.23;;;5.10;;
20449;SDS011;10384;51.940;8.432;2022-07-21T04:13:10;7.83;;;4.37;;
20449;SDS011;10384;51.940;8.432;2022-07-21T04:15:36;9.77;;;5.03;;
20449;SDS011;10384;51.940;8.432;2022-07-21T04:18:03;8.43;;;5.17;;
20449;SDS011;10384;51.940;8.432;2022-07-21T04:20:29;11.23;;;5.93;;
20449;SDS011;10384;51.940;8.432;2022-07-21T04:22:55;8.47;;;5.30;;
20449;SDS011;10384;51.940;8.432;2022-07-21T04:25:21;9.67;;;5.10;;
20449;SDS011;10384;51.940;8.432;2022-07-21T04:27:47;9.53;;;4.73;;
20449;SDS011;10384;51.940;8.432;2022-07-21T04:30:15;9.07;;;4.83;;
20449;SDS011;10384;51.940;8.432;2022-07-21T04:32:41;9.67;;;5.33;;
20449;SDS011;10384;51.940;8.432;2022-07-21T04:35:07;8.23;;;4.93;;
20449;SDS011;10384;51.940;8.432;2022-07-21T04:37:34;10.03;;;4.63;;
20449;SDS011;10384;51.940;8.432;2022-07-21T04:40:00;9.80;;;5.00;;
20449;SDS011;10384;51.940;8.432;2022-07-21T04:42:26;9.07;;;5.70;;
20449;SDS011;10384;51.940;8.432;2022-07-21T04:44:52;9.47;;;5.30;;
20449;SDS011;10384;51.940;8.432;2022-07-21T04:47:18;11.33;;;5.40;;
20449;SDS011;10384;51.940;8.432;2022-07-21T04:49:44;9.07;;;5.17;;
20449;SDS011;10384;51.940;8.432;2022-07-21T04:52:10;11.87;;;5.93;;
20449;SDS011;10384;51.940;8.432;2022-07-21T04:54:36;9.60;;;5.70;;
20449;SDS011;10384;51.940;8.432;2022-07-21T04:57:02;11.90;;;5.93;;
20449;SDS011;10384;51.940;8.432;2022-07-21T04:59:30;7.97;;;5.07;;
20449;SDS011;10384;51.940;8.432;2022-07-21T05:01:57;10.50;;;5.30;;
20449;SDS011;10384;51.940;8.432;2022-07-21T05:04:23;12.30;;;6.50;;
20449;SDS011;10384;51.940;8.432;2022-07-21T05:06:49;11.00;;;6.40;;
20449;SDS011;10384;51.940;8.432;2022-07-21T05:09:15;12.80;;;6.57;;
20449;SDS011;10384;51.940;8.432;2022-07-21T05:11:41;13.20;;;6.73;;
20449;SDS011;10384;51.940;8.432;2022-07-21T05:14:07;14.33;;;7.20;;
20449;SDS011;10384;51.940;8.432;2022-07-21T05:16:32;16.00;;;8.00;;
20449;SDS011;10384;51.940;8.432;2022-07-21T05:18:58;15.80;;;8.67;;
20449;SDS011;10384;51.940;8.432;2022-07-21T05:21:24;18.13;;;8.57;;
20449;SDS011;10384;51.940;8.432;2022-07-21T05:23:50;20.43;;;8.80;;
20449;SDS011;10384;51.940;8.432;2022-07-21T05:26:16;20.43;;;8.67;;
20449;SDS011;10384;51.940;8.432;2022-07-21T05:28:42;18.80;;;9.20;;
20449;SDS011;10384;51.940;8.432;2022-07-21T05:31:08;17.77;;;9.00;;
20449;SDS011;10384;51.940;8.432;2022-07-21T05:33:34;20.47;;;9.03;;
20449;SDS011;10384;51.940;8.432;2022-07-21T05:36:01;21.10;;;10.13;;
20449;SDS011;10384;51.940;8.432;2022-07-21T05:38:27;24.37;;;10.03;;
20449;SDS011;10384;51.940;8.432;2022-07-21T05:40:53;23.23;;;9.73;;
20449;SDS011;10384;51.940;8.432;2022-07-21T05:43:20;18.73;;;9.40;;
20449;SDS011;10384;51.940;8.432;2022-07-21T05:45:46;17.23;;;8.70;;
20449;SDS011;10384;51.940;8.432;2022-07-21T05:48:11;16.50;;;8.63;;
20449;SDS011;10384;51.940;8.432;2022-07-21T05:50:37;17.43;;;9.60;;
20449;SDS011;10384;51.940;8.432;2022-07-21T05:53:03;17.97;;;8.80;;
20449;SDS011;10384;51.940;8.432;2022-07-21T05:55:29;16.63;;;8.90;;
20449;SDS011;10384;51.940;8.432;2022-07-21T05:57:55;15.97;;;8.90;;
20449;SDS011;10384;51.940;8.432;2022-07-21T06:00:21;18.83;;;9.07;;
20449;SDS011;10384;51.940;8.432;2022-07-21T06:02:47;17.20;;;9.00;;
20449;SDS011;10384;51.940;8.432;2022-07-21T06:05:15;20.10;;;9.57;;
20449;SDS011;10384;51.940;8.432;2022-07-21T06:07:41;17.67;;;9.30;;
20449;SDS011;10384;51.940;8.432;2022-07-21T06:10:08;20.33;;;9.80;;
20449;SDS011;10384;51.940;8.432;2022-07-21T06:12:34;19.13;;;10.30;;
20449;SDS011;10384;51.940;8.432;2022-07-21T06:15:00;16.23;;;8.77;;
20449;SDS011;10384;51.940;8.432;2022-07-21T06:17:26;20.33;;;9.37;;
20449;SDS011;10384;51.940;8.432;2022-07-21T06:19:56;17.13;;;8.37;;
20449;SDS011;10384;51.940;8.432;2022-07-21T06:22:22;15.33;;;8.73;;
20449;SDS011;10384;51.940;8.432;2022-07-21T06:24:48;17.10;;;9.70;;
20449;SDS011;10384;51.940;8.432;2022-07-21T06:27:14;20.80;;;9.43;;
20449;SDS011;10384;51.940;8.432;2022-07-21T06:29:40;17.10;;;8.53;;
20449;SDS011;10384;51.940;8.432;2022-07-21T06:32:06;15.67;;;8.37;;
20449;SDS011;10384;51.940;8.432;2022-07-21T06:34:32;15.57;;;8.63;;
20449;SDS011;10384;51.940;8.432;2022-07-21T06:36:58;15.93;;;8.53;;
20449;SDS011;10384;51.940;8.432;2022-07-21T06:39:24;14.07;;;8.00;;
20449;SDS011;10384;51.940;8.432;2022-07-21T06:41:50;17.07;;;8.37;;
20449;SDS011;10384;51.940;8.432;2022-07-21T06:44:16;14.23;;;8.77;;
20449;SDS011;10384;51.940;8.432;2022-07-21T06:46:42;15.10;;;9.40;;
20449;SDS011;10384;51.940;8.432;2022-07-21T06:49:08;16.57;;;8.53;;
20449;SDS011;10384;51.940;8.432;2022-07-21T06:51:34;17.43;;;9.07;;
20449;SDS011;10384;51.940;8.432;2022-07-21T06:54:00;19.20;;;8.90;;
20449;SDS011;10384;51.940;8.432;2022-07-21T06:56:26;15.33;;;8.50;;
20449;SDS011;10384;51.940;8.432;2022-07-21T06:58:52;15.93;;;8.23;;
20449;SDS011;10384;51.940;8.432;2022-07-21T07:01:18;16.83;;;8.70;;
20449;SDS011;10384;51.940;8.432;2022-07-21T07:03:44;16.27;;;8.17;;
20449;SDS011;10384;51.940;8.432;2022-07-21T07:06:11;13.90;;;7.63;;
20449;SDS011;10384;51.940;8.432;2022-07-21T07:08:37;14.87;;;7.33;;
20449;SDS011;10384;51.940;8.432;2022-07-21T07:11:04;15.10;;;7.33;;
20449;SDS011;10384;51.940;8.432;2022-07-21T07:13:30;13.53;;;7.20;;
20449;SDS011;10384;51.940;8.432;2022-07-21T07:15:56;14.07;;;7.53;;
20449;SDS011;10384;51.940;8.432;2022-07-21T07:18:22;13.23;;;7.33;;
20449;SDS011;10384;51.940;8.432;2022-07-21T07:20:49;12.87;;;7.67;;
20449;SDS011;10384;51.940;8.432;2022-07-21T07:23:16;12.83;;;7.23;;
20449;SDS011;10384;51.940;8.432;2022-07-21T07:25:42;14.90;;;8.53;;
20449;SDS011;10384;51.940;8.432;2022-07-21T07:28:08;13.27;;;7.23;;
20449;SDS011;10384;51.940;8.432;2022-07-21T07:30:34;12.83;;;7.47;;
20449;SDS011;10384;51.940;8.432;2022-07-21T07:33:00;14.07;;;6.77;;
20449;SDS011;10384;51.940;8.432;2022-07-21T07:35:26;10.30;;;6.73;;
20449;SDS011;10384;51.940;8.432;2022-07-21T07:37:53;14.53;;;7.50;;
20449;SDS011;10384;51.940;8.432;2022-07-21T07:40:19;12.47;;;7.10;;
20449;SDS011;10384;51.940;8.432;2022-07-21T07:42:46;14.43;;;7.13;;
20449;SDS011;10384;51.940;8.432;2022-07-21T07:45:12;11.33;;;6.63;;
20449;SDS011;10384;51.940;8.432;2022-07-21T07:47:39;14.97;;;6.50;;
20449;SDS011;10384;51.940;8.432;2022-07-21T07:50:07;11.87;;;6.13;;
20449;SDS011;10384;51.940;8.432;2022-07-21T07:52:33;13.20;;;6.80;;
20449;SDS011;10384;51.940;8.432;2022-07-21T07:54:59;12.70;;;6.57;;
20449;SDS011;10384;51.940;8.432;2022-07-21T07:57:29;10.53;;;6.47;;
20449;SDS011;10384;51.940;8.432;2022-07-21T07:59:55;11.50;;;6.47;;
20449;SDS011;10384;51.940;8.432;2022-07-21T08:02:21;12.17;;;7.10;;
20449;SDS011;10384;51.940;8.432;2022-07-21T08:04:47;11.23;;;6.70;;
20449;SDS011;10384;51.940;8.432;2022-07-21T08:07:13;11.20;;;6.27;;
20449;SDS011;10384;51.940;8.432;2022-07-21T08:09:40;11.03;;;6.87;;
20449;SDS011;10384;51.940;8.432;2022-07-21T08:12:06;11.87;;;6.40;;
20449;SDS011;10384;51.940;8.432;2022-07-21T08:14:32;9.53;;;6.20;;
20449;SDS011;10384;51.940;8.432;2022-07-21T08:16:58;10.57;;;5.70;;
20449;SDS011;10384;51.940;8.432;2022-07-21T08:19:25;11.30;;;6.23;;
20449;SDS011;10384;51.940;8.432;2022-07-21T08:21:51;10.97;;;6.13;;
20449;SDS011;10384;51.940;8.432;2022-07-21T08:24:17;12.10;;;6.23;;
20449;SDS011;10384;51.940;8.432;2022-07-21T08:26:43;12.37;;;6.13;;
20449;SDS011;10384;51.940;8.432;2022-07-21T08:29:10;10.53;;;6.27;;
20449;SDS011;10384;51.940;8.432;2022-07-21T08:31:36;11.23;;;6.17;;
20449;SDS011;10384;51.940;8.432;2022-07-21T08:34:02;11.93;;;6.17;;
20449;SDS011;10384;51.940;8.432;2022-07-21T08:36:28;9.47;;;4.87;;
20449;SDS011;10384;51.940;8.432;2022-07-21T08:38:54;12.43;;;6.57;;
20449;SDS011;10384;51.940;8.432;2022-07-21T08:41:20;10.97;;;6.07;;
20449;SDS011;10384;51.940;8.432;2022-07-21T08:43:46;11.17;;;6.73;;
20449;SDS011;10384;51.940;8.432;2022-07-21T08:46:14;11.70;;;6.57;;
20449;SDS011;10384;51.940;8.432;2022-07-21T08:48:41;10.13;;;5.97;;
20449;SDS011;10384;51.940;8.432;2022-07-21T08:51:07;10.43;;;5.83;;
20449;SDS011;10384;51.940;8.432;2022-07-21T08:53:34;9.03;;;5.77;;
20449;SDS011;10384;51.940;8.432;2022-07-21T08:56:00;12.33;;;6.13;;
20449;SDS011;10384;51.940;8.432;2022-07-21T08:58:26;12.00;;;6.47;;
20449;SDS011;10384;51.940;8.432;2022-07-21T09:00:52;12.00;;;6.63;;
20449;SDS011;10384;51.940;8.432;2022-07-21T09:03:21;11.53;;;6.00;;
20449;SDS011;10384;51.940;8.432;2022-07-21T09:06:00;10.07;;;6.20;;
20449;SDS011;10384;51.940;8.432;2022-07-21T09:08:31;12.63;;;6.70;;
20449;SDS011;10384;51.940;8.432;2022-07-21T09:11:07;11.30;;;6.73;;
20449;SDS011;10384;51.940;8.432;2022-07-21T09:13:33;13.27;;;7.03;;
20449;SDS011;10384;51.940;8.432;2022-07-21T09:15:59;11.13;;;6.23;;
20449;SDS011;10384;51.940;8.432;2022-07-21T09:18:25;11.80;;;6.70;;
20449;SDS011;10384;51.940;8.432;2022-07-21T09:20:52;10.27;;;6.07;;
20449;SDS011;10384;51.940;8.432;2022-07-21T09:23:19;8.63;;;5.70;;
20449;SDS011;10384;51.940;8.432;2022-07-21T09:25:46;14.70;;;6.73;;
20449;SDS011;10384;51.940;8.432;2022-07-21T09:28:14;10.13;;;6.43;;
20449;SDS011;10384;51.940;8.432;2022-07-21T09:30:58;10.73;;;6.57;;
20449;SDS011;10384;51.940;8.432;2022-07-21T09:33:26;10.37;;;6.70;;
20449;SDS011;10384;51.940;8.432;2022-07-21T09:35:59;11.77;;;6.50;;
20449;SDS011;10384;51.940;8.432;2022-07-21T09:38:26;11.40;;;6.87;;
20449;SDS011;10384;51.940;8.432;2022-07-21T09:40:53;12.33;;;6.93;;
20449;SDS011;10384;51.940;8.432;2022-07-21T09:43:28;11.63;;;6.87;;
20449;SDS011;10384;51.940;8.432;2022-07-21T09:45:54;12.77;;;6.97;;
20449;SDS011;10384;51.940;8.432;2022-07-21T09:48:34;11.70;;;6.93;;
20449;SDS011;10384;51.940;8.432;2022-07-21T09:56:20;14.90;;;7.67;;
20449;SDS011;10384;51.940;8.432;2022-07-21T09:58:47;13.63;;;7.80;;
20449;SDS011;10384;51.940;8.432;2022-07-21T10:01:14;14.17;;;7.77;;
20449;SDS011;10384;51.940;8.432;2022-07-21T10:03:42;11.40;;;6.87;;
20449;SDS011;10384;51.940;8.432;2022-07-21T10:06:08;12.00;;;6.47;;
20449;SDS011;10384;51.940;8.432;2022-07-21T10:08:35;11.10;;;6.33;;
20449;SDS011;10384;51.940;8.432;2022-07-21T10:11:04;16.27;;;7.43;;
20449;SDS011;10384;51.940;8.432;2022-07-21T10:13:30;12.00;;;6.90;;
20449;SDS011;10384;51.940;8.432;2022-07-21T10:15:57;13.90;;;7.40;;
20449;SDS011;10384;51.940;8.432;2022-07-21T10:18:25;12.17;;;6.83;;
20449;SDS011;10384;51.940;8.432;2022-07-21T10:21:04;11.80;;;6.80;;
20449;SDS011;10384;51.940;8.432;2022-07-21T10:23:38;13.73;;;7.13;;
20449;SDS011;10384;51.940;8.432;2022-07-21T10:26:04;12.87;;;7.70;;
20449;SDS011;10384;51.940;8.432;2022-07-21T10:28:31;12.63;;;6.87;;
20449;SDS011;10384;51.940;8.432;2022-07-21T10:30:57;10.23;;;6.30;;
20449;SDS011;10384;51.940;8.432;2022-07-21T10:41:36;8.17;;;5.50;;
20449;SDS011;10384;51.940;8.432;2022-07-21T10:44:02;10.60;;;6.17;;
20449;SDS011;10384;51.940;8.432;2022-07-21T10:46:32;10.00;;;5.80;;
20449;SDS011;10384;51.940;8.432;2022-07-21T10:48:58;11.33;;;6.50;;
20449;SDS011;10384;51.940;8.432;2022-07-21T10:51:25;9.07;;;5.77;;
20449;SDS011;10384;51.940;8.432;2022-07-21T10:54:15;9.57;;;6.03;;
20449;SDS011;10384;51.940;8.432;2022-07-21T10:56:41;7.40;;;5.37;;
20449;SDS011;10384;51.940;8.432;2022-07-21T10:59:07;8.97;;;5.63;;
20449;SDS011;10384;51.940;8.432;2022-07-21T11:01:33;10.00;;;5.53;;
20449;SDS011;10384;51.940;8.432;2022-07-21T11:04:07;7.40;;;5.03;;
20449;SDS011;10384;51.940;8.432;2022-07-21T11:06:34;10.27;;;5.60;;
20449;SDS011;10384;51.940;8.432;2022-07-21T11:11:30;7.17;;;4.47;;
20449;SDS011;10384;51.940;8.432;2022-07-21T11:21:53;6.50;;;3.93;;
20449;SDS011;10384;51.940;8.432;2022-07-21T11:24:20;6.17;;;4.30;;
20449;SDS011;10384;51.940;8.432;2022-07-21T11:26:53;6.97;;;3.67;;
20449;SDS011;10384;51.940;8.432;2022-07-21T11:29:19;4.43;;;3.63;;
20449;SDS011;10384;51.940;8.432;2022-07-21T11:31:45;6.47;;;3.73;;
20449;SDS011;10384;51.940;8.432;2022-07-21T11:34:12;6.87;;;3.70;;
20449;SDS011;10384;51.940;8.432;2022-07-21T11:36:38;8.10;;;3.90;;
20449;SDS011;10384;51.940;8.432;2022-07-21T11:41:30;4.90;;;3.73;;
20449;SDS011;10384;51.940;8.432;2022-07-21T11:43:56;8.57;;;4.10;;
20449;SDS011;10384;51.940;8.432;2022-07-21T11:46:22;8.57;;;4.23;;
20449;SDS011;10384;51.940;8.432;2022-07-21T11:48:48;9.47;;;4.13;;
20449;SDS011;10384;51.940;8.432;2022-07-21T11:51:25;6.50;;;4.60;;
20449;SDS011;10384;51.940;8.432;2022-07-21T11:53:51;7.67;;;5.30;;
20449;SDS011;10384;51.940;8.432;2022-07-21T11:56:17;5.83;;;3.93;;
20449;SDS011;10384;51.940;8.432;2022-07-21T11:58:43;7.97;;;4.83;;
20449;SDS011;10384;51.940;8.432;2022-07-21T12:01:09;7.23;;;4.80;;
20449;SDS011;10384;51.940;8.432;2022-07-21T12:03:46;7.17;;;5.13;;
20449;SDS011;10384;51.940;8.432;2022-07-21T12:06:12;11.83;;;5.50;;
20449;SDS011;10384;51.940;8.432;2022-07-21T12:08:39;10.97;;;5.37;;
20449;SDS011;10384;51.940;8.432;2022-07-21T12:11:06;10.50;;;6.20;;
20449;SDS011;10384;51.940;8.432;2022-07-21T12:13:50;8.33;;;4.90;;
20449;SDS011;10384;51.940;8.432;2022-07-21T12:16:16;8.40;;;5.17;;
20449;SDS011;10384;51.940;8.432;2022-07-21T12:18:42;6.93;;;4.90;;
20449;SDS011;10384;51.940;8.432;2022-07-21T12:21:08;8.70;;;5.47;;
20449;SDS011;10384;51.940;8.432;2022-07-21T12:23:34;7.77;;;5.60;;
20449;SDS011;10384;51.940;8.432;2022-07-21T12:26:01;7.20;;;5.27;;
20449;SDS011;10384;51.940;8.432;2022-07-21T12:31:13;6.90;;;5.13;;
20449;SDS011;10384;51.940;8.432;2022-07-21T12:33:41;8.20;;;4.97;;
20449;SDS011;10384;51.940;8.432;2022-07-21T12:36:08;8.77;;;5.37;;
20449;SDS011;10384;51.940;8.432;2022-07-21T12:38:38;7.33;;;5.50;;
20449;SDS011;10384;51.940;8.432;2022-07-21T12:41:04;8.47;;;5.90;;
20449;SDS011;10384;51.940;8.432;2022-07-21T12:43:30;8.43;;;5.57;;
20449;SDS011;10384;51.940;8.432;2022-07-21T12:45:58;9.83;;;5.77;;
20449;SDS011;10384;51.940;8.432;2022-07-21T12:48:25;10.33;;;5.40;;
20449;SDS011;10384;51.940;8.432;2022-07-21T12:50:58;6.20;;;4.43;;
20449;SDS011;10384;51.940;8.432;2022-07-21T12:53:24;5.43;;;4.10;;
20449;SDS011;10384;51.940;8.432;2022-07-21T12:55:50;6.77;;;4.70;;
20449;SDS011;10384;51.940;8.432;2022-07-21T12:58:16;7.03;;;4.90;;
20449;SDS011;10384;51.940;8.432;2022-07-21T13:00:42;7.60;;;4.50;;
20449;SDS011;10384;51.940;8.432;2022-07-21T13:03:08;9.97;;;5.47;;
20449;SDS011;10384;51.940;8.432;2022-07-21T13:05:34;7.67;;;4.50;;
20449;SDS011;10384;51.940;8.432;2022-07-21T13:08:00;6.63;;;4.83;;
20449;SDS011;10384;51.940;8.432;2022-07-21T13:10:26;5.83;;;5.00;;
20449;SDS011;10384;51.940;8.432;2022-07-21T13:12:53;7.47;;;5.30;;
20449;SDS011;10384;51.940;8.432;2022-07-21T13:15:19;6.57;;;4.90;;
20449;SDS011;10384;51.940;8.432;2022-07-21T13:17:45;6.83;;;4.60;;
20449;SDS011;10384;51.940;8.432;2022-07-21T13:20:12;7.53;;;5.93;;
20449;SDS011;10384;51.940;8.432;2022-07-21T13:22:39;7.73;;;5.50;;
20449;SDS011;10384;51.940;8.432;2022-07-21T13:25:05;10.20;;;6.03;;
20449;SDS011;10384;51.940;8.432;2022-07-21T13:27:32;8.80;;;5.80;;
20449;SDS011;10384;51.940;8.432;2022-07-21T13:29:58;10.43;;;6.30;;
20449;SDS011;10384;51.940;8.432;2022-07-21T13:32:24;8.50;;;6.33;;
20449;SDS011;10384;51.940;8.432;2022-07-21T13:34:50;13.67;;;6.90;;
20449;SDS011;10384;51.940;8.432;2022-07-21T13:37:17;9.17;;;6.37;;
20449;SDS011;10384;51.940;8.432;2022-07-21T13:39:42;9.03;;;6.37;;
20449;SDS011;10384;51.940;8.432;2022-07-21T13:42:08;13.30;;;7.07;;
20449;SDS011;10384;51.940;8.432;2022-07-21T13:44:34;9.33;;;6.10;;
20449;SDS011;10384;51.940;8.432;2022-07-21T13:47:01;9.93;;;6.40;;
20449;SDS011;10384;51.940;8.432;2022-07-21T13:49:27;8.53;;;6.00;;
20449;SDS011;10384;51.940;8.432;2022-07-21T13:51:53;9.57;;;6.03;;
20449;SDS011;10384;51.940;8.432;2022-07-21T13:54:19;7.40;;;5.30;;
20449;SDS011;10384;51.940;8.432;2022-07-21T13:56:45;8.50;;;5.77;;
20449;SDS011;10384;51.940;8.432;2022-07-21T13:59:11;9.47;;;5.77;;
20449;SDS011;10384;51.940;8.432;2022-07-21T14:01:37;8.83;;;5.33;;
20449;SDS011;10384;51.940;8.432;2022-07-21T14:04:04;7.87;;;5.07;;
20449;SDS011;10384;51.940;8.432;2022-07-21T14:06:30;8.93;;;5.43;;
20449;SDS011;10384;51.940;8.432;2022-07-21T14:08:56;10.17;;;5.40;;
20449;SDS011;10384;51.940;8.432;2022-07-21T14:11:22;7.30;;;4.67;;
20449;SDS011;10384;51.940;8.432;2022-07-21T14:13:52;9.07;;;5.17;;
20449;SDS011;10384;51.940;8.432;2022-07-21T14:16:18;8.90;;;5.07;;
20449;SDS011;10384;51.940;8.432;2022-07-21T14:18:45;10.13;;;5.30;;
20449;SDS011;10384;51.940;8.432;2022-07-21T14:21:11;7.20;;;5.03;;
20449;SDS011;10384;51.940;8.432;2022-07-21T14:23:37;8.03;;;5.57;;
20449;SDS011;10384;51.940;8.432;2022-07-21T14:26:03;10.10;;;6.33;;
20449;SDS011;10384;51.940;8.432;2022-07-21T14:28:30;10.63;;;5.97;;
20449;SDS011;10384;51.940;8.432;2022-07-21T14:30:56;10.07;;;6.03;;
20449;SDS011;10384;51.940;8.432;2022-07-21T14:33:22;8.67;;;5.80;;
20449;SDS011;10384;51.940;8.432;2022-07-21T14:35:49;7.70;;;5.37;;
20449;SDS011;10384;51.940;8.432;2022-07-21T14:38:14;9.43;;;6.23;;
20449;SDS011;10384;51.940;8.432;2022-07-21T14:40:42;7.93;;;4.97;;
20449;SDS011;10384;51.940;8.432;2022-07-21T14:43:08;8.50;;;5.17;;
20449;SDS011;10384;51.940;8.432;2022-07-21T14:45:34;8.80;;;5.20;;
20449;SDS011;10384;51.940;8.432;2022-07-21T14:48:02;8.03;;;4.80;;
20449;SDS011;10384;51.940;8.432;2022-07-21T14:50:28;6.27;;;4.70;;
20449;SDS011;10384;51.940;8.432;2022-07-21T14:52:55;6.30;;;4.07;;
20449;SDS011;10384;51.940;8.432;2022-07-21T14:55:22;6.93;;;3.70;;
20449;SDS011;10384;51.940;8.432;2022-07-21T14:57:49;5.30;;;3.90;;
20449;SDS011;10384;51.940;8.432;2022-07-21T15:00:15;5.80;;;3.80;;
20449;SDS011;10384;51.940;8.432;2022-07-21T15:02:41;7.47;;;3.73;;
20449;SDS011;10384;51.940;8.432;2022-07-21T15:05:07;3.93;;;3.20;;
20449;SDS011;10384;51.940;8.432;2022-07-21T15:07:33;5.30;;;3.20;;
20449;SDS011;10384;51.940;8.432;2022-07-21T15:09:59;3.83;;;2.90;;